METAR Data
IDs: Format: Raw Decoded Include TAF

Data at: 1142 UTC 16 Oct 2018

PAPG 161056Z AUTO VRB04KT 10SM CLR 07/02 A3020 RMK AO2 SLP231 T00720022
PAPG 160956Z AUTO 26006KT 10SM CLR 07/02 A3022 RMK AO2 SLP237 T00720017
PAPG 160856Z AUTO 00000KT 10SM CLR 09/00 A3021 RMK AO2 SLP232 T00940000 401560061 56010
PAPG 160756Z AUTO VRB03KT 10SM CLR 07/02 A3021 RMK AO2 SLP234 T00720017
PAPG 160656Z AUTO VRB03KT 10SM CLR 07/03 A3023 RMK AO2 SLP241 T00670028
PAPG 160556Z 00000KT 10SM CLR 08/02 A3024 RMK AO2 SLP243 T00830022 10139 20072 56006
PAPG 160456Z VRB04KT 10SM CLR 09/03 A3024 RMK AO2 SLP244 T00890033
PAPG 160356Z 27003KT 10SM CLR 09/04 A3025 RMK AO2 SLP247 T00890039
PAPG 160256Z VRB03KT 10SM CLR 09/04 A3025 RMK AO2 SLP248 T00890039 56005
PAPG 160156Z VRB04KT 10SM CLR 12/03 A3026 RMK AO2 SLP249 T01220028
PAPG 160056Z VRB03KT 10SM CLR 11/04 A3026 RMK AO2 SLP250 T01110044
PAPG 152356Z 29003KT 10SM CLR 13/04 A3027 RMK AO2 SLP254 T01330039 10156 20111 58006
PAPG 152256Z 27004KT 10SM CLR 14/03 A3029 RMK AO2 SLP261 T01440028
PAPG 152156Z 26006KT 10SM FEW090 15/03 A3029 RMK AO2 SLP260 T01500033
PAPG 152056Z 28007KT 10SM FEW080 14/04 A3029 RMK AO2 SLP260 T01390039 56003
PAPG 151956Z 26006KT 10SM FEW030 SCT050 13/05 A3029 RMK AO2 SLP260 T01280050
PAPG 151856Z VRB05KT 10SM FEW031 BKN047 12/06 A3029 RMK AO2 SLP262 T01220056
PAPG 151756Z VRB04KT 10SM OVC041 11/06 A3030 RMK AO2 SLP263 T01110061 10111 20083 50005
PAPG 151656Z 00000KT 10SM OVC035 10/07 A3030 RMK AO2 SLP265 T01000072
PAPG 151556Z 00000KT 10SM OVC035 10/07 A3029 RMK AO2 SLP262 T01000067
PAPG 151456Z 00000KT 10SM BKN035 09/07 A3028 RMK AO2 SLP258 T00890072 53001
PAPG 151356Z AUTO 29004KT 10SM OVC035 09/07 A3027 RMK AO2 SLP255 T00890067
PAPG 151256Z AUTO 25003KT 10SM OVC039 09/07 A3028 RMK AO2 SLP257 T00890072
PAPG 151156Z AUTO 00000KT 10SM OVC035 09/07 A3028 RMK AO2 SLP257 60001 70008 T00940072 10100 20083 50003
PAPG 151056Z AUTO 29003KT 10SM OVC041 09/08 A3028 RMK AO2 SLP258 T00890078
PAPG 150956Z AUTO 22003KT 10SM OVC035 09/08 A3028 RMK AO2 SLP259 T00890083
PAPG 150856Z AUTO 00000KT 10SM OVC033 09/08 A3027 RMK AO2 SLP254 60001 T00890083 401000072 51003
PAPG 150756Z AUTO 21003KT 10SM SCT023 OVC031 09/08 A3027 RMK AO2 RAE0659 SLP253 P0000 T00940083
PAPG 150746Z AUTO 00000KT 10SM SCT023 OVC031 09/08 A3027 RMK AO2 RAE0659 P0000
PAPG 150656Z AUTO 00000KT 10SM -RA BKN019 OVC027 10/08 A3027 RMK AO2 SLP253 P0001 T01000078
PAPG 150637Z AUTO 20003KT 10SM -RA BKN015 OVC021 09/08 A3027 RMK AO2 P0001
PAPG 150556Z 33003KT 7SM -RA SCT006 BKN012 OVC017 09/08 A3026 RMK AO2 SLP250 P0002 60007 T00890083 10100 20089 51008
PAPG 150456Z 00000KT 7SM -RA FEW008 BKN014 OVC020 09/09 A3026 RMK AO2 SLP249 P0003 T00890089
PAPG 150356Z 00000KT 7SM -RA FEW005 BKN014 OVC020 09/08 A3026 RMK AO2 SLP249 P0001 T00890083
PAPG 150256Z 31003KT 5SM -RA BR FEW005 BKN014 OVC020 09/08 A3024 RMK AO2 RAB0158 SLP243 P0000 60001 T00890083 58006
PAPG 150156Z 00000KT 4SM BR FEW005 BKN016 OVC022 09/08 A3025 RMK AO2 RAB07E43 SLP247 P0001 T00890083
PAPG 150056Z 03003KT 5SM BR FEW005 BKN016 OVC022 09/08 A3025 RMK AO2 RAE03 SLP247 P0000 T00940083
PAPG 142356Z 00000KT 7SM -RA BR FEW006 BKN016 OVC021 09/08 A3026 RMK AO2 RAB19 SLP249 P0000 60000 T00940083 10100 20083 56004